Terminal Aerodrome Forecast
Issued by NWS

Home | Current Version | Previous Version | Text Only | Print | Product List | Glossary On
Versions: 1 2 3 4 5 6 7 8 9 10 11 12 13
000
FTUS45 KGGW 220520
TAFGDV
TAF
KGDV 220520Z 2206/2306 17004KT P6SM BKN120
     FM221100 22009KT P6SM BKN035 WS020/27035KT
     FM221400 23012KT P6SM BKN040 WS020/28045KT
     FM221600 26015G23KT P6SM SCT080 WS020/29050KT
     FM222200 31012KT P6SM FEW150
     FM230300 29005KT P6SM SCT017=

USA.gov is the U.S. government's official web portal to all federal, state and local government web resources and services.